createdAt,value
2023-12-08T00:01:59.627Z,0.76
2023-12-08T00:04:27.374Z,0.78
2023-12-08T00:06:53.910Z,0.77
2023-12-08T00:09:20.249Z,0.72
2023-12-08T00:11:46.780Z,0.77
2023-12-08T00:14:13.125Z,0.75
2023-12-08T00:16:42.294Z,0.69
2023-12-08T00:19:10.164Z,0.60
2023-12-08T00:21:36.545Z,0.68
2023-12-08T00:24:02.935Z,0.65
2023-12-08T00:26:29.986Z,0.61
2023-12-08T00:28:56.326Z,0.65
2023-12-08T00:31:22.662Z,0.65
2023-12-08T00:33:49.127Z,0.53
2023-12-08T00:36:17.880Z,0.51
2023-12-08T00:38:45.742Z,0.46
2023-12-08T00:41:12.107Z,0.44
2023-12-08T00:43:38.435Z,0.37
2023-12-08T00:46:05.113Z,0.41
2023-12-08T00:48:31.579Z,0.41
2023-12-08T00:50:58.109Z,0.28
2023-12-08T00:53:24.790Z,0.33
2023-12-08T00:55:51.113Z,0.28
2023-12-08T00:58:17.997Z,0.25
2023-12-08T01:00:44.885Z,0.27
2023-12-08T01:03:11.795Z,0.20
2023-12-08T01:05:38.356Z,0.19
2023-12-08T01:08:04.955Z,0.27
2023-12-08T01:10:31.254Z,0.14
2023-12-08T01:12:57.901Z,0.21
2023-12-08T01:15:24.202Z,0.14
2023-12-08T01:17:50.602Z,0.15
2023-12-08T01:20:17.103Z,0.09
2023-12-08T01:22:43.410Z,0.12
2023-12-08T01:25:09.809Z,0.19
2023-12-08T01:27:36.322Z,0.12
2023-12-08T01:30:03.341Z,0.06
2023-12-08T01:32:29.778Z,0.05
2023-12-08T01:34:56.185Z,0.03
2023-12-08T01:37:22.659Z,-0.02
2023-12-08T01:39:51.931Z,-0.04
2023-12-08T01:42:20.018Z,0.06
2023-12-08T01:44:46.465Z,0.03
2023-12-08T01:47:13.385Z,0.00
2023-12-08T01:49:43.152Z,-0.02
2023-12-08T01:52:10.645Z,-0.02
2023-12-08T01:54:37.034Z,-0.10
2023-12-08T01:57:03.588Z,-0.01
2023-12-08T01:59:31.127Z,-0.02
2023-12-08T02:01:59.252Z,0.03
2023-12-08T02:04:26.291Z,0.02
2023-12-08T02:06:52.643Z,0.05
2023-12-08T02:09:19.020Z,0.05
2023-12-08T02:11:45.441Z,0.11
2023-12-08T02:14:14.885Z,0.00
2023-12-08T02:16:44.191Z,0.08
2023-12-08T02:19:13.381Z,-0.06
2023-12-08T02:21:40.526Z,-0.01
2023-12-08T02:24:07.218Z,0.04
2023-12-08T02:26:33.779Z,0.03
2023-12-08T02:29:00.256Z,-0.07
2023-12-08T02:31:30.019Z,-0.10
2023-12-08T02:33:56.455Z,-0.13
2023-12-08T02:36:26.839Z,-0.16
2023-12-08T02:38:53.875Z,-0.15
2023-12-08T02:41:20.495Z,-0.14
2023-12-08T02:43:46.805Z,-0.29
2023-12-08T02:46:13.154Z,-0.25
2023-12-08T02:48:39.637Z,-0.23
2023-12-08T02:51:09.314Z,-0.38
2023-12-08T02:53:35.854Z,-0.32
2023-12-08T02:56:02.266Z,-0.45
2023-12-08T02:58:31.601Z,-0.42
2023-12-08T03:01:00.241Z,-0.34
2023-12-08T03:03:26.795Z,-0.38
2023-12-08T03:05:53.262Z,-0.37
2023-12-08T03:08:19.613Z,-0.41
2023-12-08T03:10:46.029Z,-0.46
2023-12-08T03:13:12.510Z,-0.45
2023-12-08T03:15:38.957Z,-0.52
2023-12-08T03:18:05.531Z,-0.48
2023-12-08T03:20:31.963Z,-0.61
2023-12-08T03:22:58.323Z,-0.52
2023-12-08T03:25:24.701Z,-0.49
2023-12-08T03:27:51.066Z,-0.66
2023-12-08T03:30:17.625Z,-0.69
2023-12-08T03:32:44.383Z,-0.58
2023-12-08T03:35:10.804Z,-0.51
2023-12-08T03:37:37.207Z,-0.55
2023-12-08T03:40:03.992Z,-0.52
2023-12-08T03:42:36.001Z,-0.54
2023-12-08T03:45:02.616Z,-0.60
2023-12-08T03:47:29.708Z,-0.51
2023-12-08T03:49:56.291Z,-0.51
2023-12-08T03:52:22.642Z,-0.52
2023-12-08T03:54:48.952Z,-0.42
2023-12-08T03:57:15.298Z,-0.57
2023-12-08T03:59:44.814Z,-0.50
2023-12-08T04:02:11.232Z,-0.48
2023-12-08T04:04:37.638Z,-0.50
2023-12-08T04:07:04.103Z,-0.50
2023-12-08T04:09:31.147Z,-0.42
2023-12-08T04:11:57.607Z,-0.49
2023-12-08T04:14:24.041Z,-0.51
2023-12-08T04:16:53.766Z,-0.44
2023-12-08T04:19:20.805Z,-0.48
2023-12-08T04:21:47.168Z,-0.50
2023-12-08T04:24:13.655Z,-0.62
2023-12-08T04:26:46.444Z,-0.55
2023-12-08T04:29:12.933Z,-0.55
2023-12-08T04:31:39.281Z,-0.48
2023-12-08T04:34:05.821Z,-0.49
2023-12-08T04:36:32.582Z,-0.54
2023-12-08T04:38:58.915Z,-0.55
2023-12-08T04:41:25.286Z,-0.55
2023-12-08T04:43:51.675Z,-0.62
2023-12-08T04:46:19.266Z,-0.61
2023-12-08T04:48:45.770Z,-0.60
2023-12-08T04:51:12.221Z,-0.54
2023-12-08T04:53:38.640Z,-0.66
2023-12-08T04:56:05.672Z,-0.61
2023-12-08T04:58:32.028Z,-0.61
2023-12-08T05:00:58.408Z,-0.60
2023-12-08T05:03:25.019Z,-0.61
2023-12-08T05:05:51.616Z,-0.59
2023-12-08T05:08:17.981Z,-0.70
2023-12-08T05:10:44.297Z,-0.68
2023-12-08T05:13:10.702Z,-0.76
2023-12-08T05:15:37.051Z,-0.76
2023-12-08T05:18:04.285Z,-0.71
2023-12-08T05:20:30.737Z,-0.70
2023-12-08T05:22:57.082Z,-0.75
2023-12-08T05:25:23.432Z,-0.73
2023-12-08T05:27:50.289Z,-0.81
2023-12-08T05:30:16.793Z,-0.75
2023-12-08T05:32:43.576Z,-0.80
2023-12-08T05:35:10.014Z,-0.83
2023-12-08T05:37:36.362Z,-0.86
2023-12-08T05:40:02.704Z,-0.82
2023-12-08T05:42:29.038Z,-0.89
2023-12-08T05:44:55.442Z,-0.70
2023-12-08T05:47:21.863Z,-0.79
2023-12-08T05:49:48.442Z,-0.74
2023-12-08T05:52:15.301Z,-0.76
2023-12-08T05:54:41.628Z,-0.82
2023-12-08T05:57:08.500Z,-0.81
2023-12-08T05:59:34.930Z,-0.90
2023-12-08T06:02:01.299Z,-0.87
2023-12-08T06:04:27.625Z,-0.88
2023-12-08T06:06:54.836Z,-0.90
2023-12-08T06:09:21.279Z,-0.91
2023-12-08T06:11:47.648Z,-0.92
2023-12-08T06:14:13.968Z,-0.94
2023-12-08T06:16:40.371Z,-0.94
2023-12-08T06:19:06.859Z,-0.92
2023-12-08T06:21:33.349Z,-0.91
2023-12-08T06:24:01.200Z,-0.85
2023-12-08T06:26:29.708Z,-0.86
2023-12-08T06:28:56.060Z,-0.84
2023-12-08T06:31:22.358Z,-0.88
2023-12-08T06:34:01.195Z,-0.87
2023-12-08T06:36:34.952Z,-0.89
2023-12-08T06:39:01.502Z,-0.87
2023-12-08T06:41:28.161Z,-0.96
2023-12-08T06:43:54.662Z,-1.04
2023-12-08T06:46:21.118Z,-0.95
2023-12-08T06:48:47.520Z,-1.02
2023-12-08T06:51:13.949Z,-1.02
2023-12-08T06:53:40.304Z,-1.01
2023-12-08T06:56:07.383Z,-0.99
2023-12-08T06:58:34.532Z,-1.02
2023-12-08T07:01:00.966Z,-0.99
2023-12-08T07:03:27.383Z,-1.08
2023-12-08T07:05:53.792Z,-1.06
2023-12-08T07:08:20.106Z,-1.08
2023-12-08T07:10:46.461Z,-1.04
2023-12-08T07:13:12.849Z,-1.13
2023-12-08T07:15:39.264Z,-1.10
2023-12-08T07:18:05.668Z,-1.07
2023-12-08T07:20:32.218Z,-1.07
2023-12-08T07:22:58.562Z,-1.08
2023-12-08T07:25:24.984Z,-1.15
2023-12-08T07:27:52.833Z,-1.18
2023-12-08T07:30:19.314Z,-1.21
2023-12-08T07:32:46.010Z,-1.16
2023-12-08T07:35:12.382Z,-1.24
2023-12-08T07:37:39.256Z,-1.22
2023-12-08T07:40:06.350Z,-1.24
2023-12-08T07:42:32.988Z,-1.28
2023-12-08T07:44:59.440Z,-1.20
2023-12-08T07:47:26.129Z,-1.19
2023-12-08T07:49:52.759Z,-1.17
2023-12-08T07:52:19.248Z,-1.20
2023-12-08T07:54:45.672Z,-1.18
2023-12-08T07:57:12.117Z,-1.14
2023-12-08T07:59:38.524Z,-1.03
2023-12-08T08:02:04.878Z,-0.86
2023-12-08T08:04:31.789Z,-0.63
2023-12-08T08:06:58.269Z,-0.65
2023-12-08T08:09:24.660Z,-0.57
2023-12-08T08:11:51.041Z,-0.17
2023-12-08T08:14:17.566Z,-0.18
2023-12-08T08:16:43.942Z,-0.30
2023-12-08T08:19:10.623Z,-0.42
2023-12-08T08:21:37.164Z,0.06
2023-12-08T08:24:03.640Z,0.24
2023-12-08T08:26:30.061Z,0.35
2023-12-08T08:28:56.449Z,0.09
2023-12-08T08:31:22.996Z,0.00
2023-12-08T08:33:49.972Z,-0.14
2023-12-08T08:36:16.533Z,-0.03
2023-12-08T08:38:43.072Z,-0.22
2023-12-08T08:41:09.449Z,-0.16
2023-12-08T08:43:35.764Z,0.27
2023-12-08T08:46:02.104Z,0.34
2023-12-08T08:48:28.645Z,0.09
2023-12-08T08:50:55.092Z,0.10
2023-12-08T08:53:21.943Z,-0.09
2023-12-08T08:55:48.382Z,-0.14
2023-12-08T08:58:14.698Z,-0.22
2023-12-08T09:00:41.349Z,-0.15
2023-12-08T09:03:07.855Z,-0.02
2023-12-08T09:05:37.358Z,0.18
2023-12-08T09:08:03.800Z,0.09
2023-12-08T09:10:30.128Z,-0.01
2023-12-08T09:12:56.468Z,-0.11
2023-12-08T09:15:22.904Z,-0.21
2023-12-08T09:17:49.489Z,-0.03
2023-12-08T09:20:16.031Z,-0.17
2023-12-08T09:22:45.038Z,-0.09
2023-12-08T09:25:11.372Z,-0.05
2023-12-08T09:27:38.028Z,0.04
2023-12-08T09:30:05.296Z,0.35
2023-12-08T09:32:32.337Z,0.37
2023-12-08T09:34:58.785Z,0.03
2023-12-08T09:37:34.384Z,-0.04
2023-12-08T09:40:03.235Z,0.14
2023-12-08T09:42:35.592Z,0.20
2023-12-08T09:45:02.254Z,0.10
2023-12-08T09:47:29.557Z,0.20
2023-12-08T09:49:56.605Z,0.13
2023-12-08T09:52:22.998Z,0.03
2023-12-08T09:54:49.477Z,0.10
2023-12-08T09:57:17.490Z,-0.05
2023-12-08T09:59:44.521Z,0.08
2023-12-08T10:02:10.996Z,0.11
2023-12-08T10:04:37.406Z,0.14
2023-12-08T10:07:06.913Z,0.10
2023-12-08T10:09:33.303Z,0.04
2023-12-08T10:12:00.181Z,-0.18
2023-12-08T10:14:27.458Z,0.07
2023-12-08T10:16:53.810Z,-0.07
2023-12-08T10:19:21.661Z,-0.07
2023-12-08T10:22:01.644Z,-0.10
2023-12-08T10:24:31.651Z,-0.02
2023-12-08T10:26:59.455Z,-0.07
2023-12-08T10:29:32.472Z,-0.22
2023-12-08T10:31:59.181Z,-0.20
2023-12-08T10:34:25.876Z,-0.04
2023-12-08T10:36:53.166Z,-0.04
2023-12-08T10:39:19.985Z,-0.11
2023-12-08T10:41:49.774Z,-0.04
2023-12-08T10:44:19.008Z,0.12
2023-12-08T10:46:45.584Z,0.24
2023-12-08T10:49:12.172Z,0.25
2023-12-08T10:51:39.435Z,0.09
2023-12-08T10:54:06.100Z,-0.10
2023-12-08T10:56:32.482Z,-0.10
2023-12-08T10:59:00.229Z,0.12
2023-12-08T11:01:27.373Z,0.03
2023-12-08T11:04:03.802Z,-0.12
2023-12-08T11:06:39.751Z,-0.01
2023-12-08T11:09:07.680Z,0.14
2023-12-08T11:11:35.733Z,0.28
2023-12-08T11:14:06.089Z,0.27
2023-12-08T11:16:36.204Z,0.25
2023-12-08T11:19:03.040Z,0.06
2023-12-08T11:21:30.805Z,-0.02
2023-12-08T11:23:57.216Z,-0.04
2023-12-08T11:26:42.185Z,0.21
2023-12-08T11:29:16.633Z,0.19
2023-12-08T11:31:51.522Z,0.39
2023-12-08T11:34:26.042Z,0.22
2023-12-08T11:36:52.532Z,0.47
2023-12-08T11:39:38.281Z,0.34
2023-12-08T11:42:09.676Z,0.37
2023-12-08T11:44:36.774Z,0.23
2023-12-08T11:47:03.405Z,0.31
2023-12-08T11:49:30.552Z,0.31
2023-12-08T11:52:06.562Z,0.49
2023-12-08T11:55:06.420Z,0.34
2023-12-08T11:57:39.065Z,0.57
2023-12-08T12:00:12.629Z,0.56
2023-12-08T12:02:41.198Z,0.65
2023-12-08T12:05:08.297Z,0.67
2023-12-08T12:07:34.993Z,0.61
2023-12-08T12:10:03.936Z,0.63
2023-12-08T12:12:32.030Z,0.63
2023-12-08T12:15:01.116Z,0.61
2023-12-08T12:17:30.559Z,0.56
2023-12-08T12:19:57.239Z,0.57
2023-12-08T12:22:23.708Z,0.45
2023-12-08T12:24:50.074Z,0.41
2023-12-08T12:27:16.593Z,0.42
2023-12-08T12:29:43.634Z,0.49
2023-12-08T12:32:10.236Z,0.51
2023-12-08T12:34:37.771Z,0.48
2023-12-08T12:37:04.490Z,0.53
2023-12-08T12:39:31.037Z,0.57
2023-12-08T12:42:03.952Z,0.50
2023-12-08T12:44:43.290Z,0.53
2023-12-08T12:47:10.659Z,0.52
2023-12-08T12:49:38.742Z,0.54
2023-12-08T12:52:19.917Z,0.59
2023-12-08T12:54:46.240Z,0.42
2023-12-08T12:57:12.651Z,0.53
2023-12-08T12:59:52.998Z,0.60
2023-12-08T13:02:27.334Z,0.75
2023-12-08T13:04:54.234Z,0.90
2023-12-08T13:07:23.501Z,0.92
2023-12-08T13:09:52.381Z,0.97
2023-12-08T13:12:19.164Z,0.93
2023-12-08T13:14:45.531Z,0.90
2023-12-08T13:17:11.905Z,0.87
2023-12-08T13:19:38.347Z,0.93
2023-12-08T13:22:04.769Z,0.96
2023-12-08T13:24:31.191Z,0.84
2023-12-08T13:26:57.604Z,0.62
2023-12-08T13:29:23.991Z,0.55
2023-12-08T13:31:50.367Z,0.49
2023-12-08T13:34:16.963Z,0.53
2023-12-08T13:36:43.375Z,0.42
2023-12-08T13:39:11.389Z,0.48
2023-12-08T13:41:37.784Z,0.39
2023-12-08T13:44:04.283Z,0.44
2023-12-08T13:46:30.652Z,0.40
2023-12-08T13:48:57.178Z,0.31
2023-12-08T13:51:38.261Z,0.23
2023-12-08T13:54:06.429Z,0.33
2023-12-08T13:56:33.075Z,0.43
2023-12-08T13:58:59.480Z,0.48
2023-12-08T14:01:26.046Z,0.44
2023-12-08T14:03:53.338Z,0.44
2023-12-08T14:06:21.080Z,0.39
2023-12-08T14:08:47.733Z,0.36
2023-12-08T14:11:14.187Z,0.34
2023-12-08T14:13:40.945Z,0.31
2023-12-08T14:16:07.601Z,0.40
2023-12-08T14:18:34.178Z,0.33
2023-12-08T14:21:03.570Z,0.30
2023-12-08T14:23:30.013Z,0.37
2023-12-08T14:25:56.450Z,0.31
2023-12-08T14:28:22.888Z,0.26
2023-12-08T14:30:49.334Z,0.31
2023-12-08T14:33:15.878Z,0.29
2023-12-08T14:35:42.528Z,0.27
2023-12-08T14:38:08.991Z,0.30
2023-12-08T14:40:35.712Z,0.35
2023-12-08T14:43:02.152Z,0.29
2023-12-08T14:45:29.100Z,0.32
2023-12-08T14:47:55.719Z,0.32
2023-12-08T14:50:22.146Z,0.32
2023-12-08T14:52:48.477Z,0.27
2023-12-08T14:55:16.708Z,0.33
2023-12-08T14:57:44.072Z,0.28
2023-12-08T15:00:11.595Z,0.26
2023-12-08T15:02:38.062Z,0.35
2023-12-08T15:05:05.519Z,0.33
2023-12-08T15:07:31.998Z,0.31
2023-12-08T15:09:58.328Z,0.37
2023-12-08T15:12:24.766Z,0.26
2023-12-08T15:14:51.327Z,0.33
2023-12-08T15:17:17.705Z,0.36
2023-12-08T15:19:44.056Z,0.34
2023-12-08T15:22:10.490Z,0.34
2023-12-08T15:24:37.402Z,0.27
2023-12-08T15:27:03.983Z,0.29
2023-12-08T15:29:30.388Z,0.20
2023-12-08T15:31:56.716Z,0.24
2023-12-08T15:34:23.142Z,0.26
2023-12-08T15:36:50.895Z,0.24
2023-12-08T15:39:17.478Z,0.33
2023-12-08T15:41:44.263Z,0.37
2023-12-08T15:44:10.654Z,0.27
2023-12-08T15:46:37.525Z,0.28
2023-12-08T15:49:04.634Z,0.23
2023-12-08T15:51:31.486Z,0.30
2023-12-08T15:53:59.108Z,0.33
2023-12-08T15:56:25.882Z,0.24
2023-12-08T15:58:52.363Z,0.26
2023-12-08T16:01:19.544Z,0.24
2023-12-08T16:03:46.054Z,0.24
2023-12-08T16:06:13.393Z,0.26
2023-12-08T16:08:41.111Z,0.25
2023-12-08T16:11:07.454Z,0.19
2023-12-08T16:13:34.449Z,0.27
2023-12-08T16:16:04.998Z,0.16
2023-12-08T16:18:32.579Z,0.21
2023-12-08T16:20:58.994Z,0.24
2023-12-08T16:23:25.349Z,0.27
2023-12-08T16:25:51.643Z,0.23
2023-12-08T16:28:17.998Z,0.27
2023-12-08T16:30:44.313Z,0.26
2023-12-08T16:33:10.718Z,0.23
2023-12-08T16:35:37.055Z,0.23
2023-12-08T16:38:04.478Z,0.16
2023-12-08T16:40:30.781Z,0.28
2023-12-08T16:42:57.092Z,0.26
2023-12-08T16:45:23.562Z,0.29
2023-12-08T16:47:50.033Z,0.32
2023-12-08T16:50:16.753Z,0.35
2023-12-08T16:52:43.730Z,0.28
2023-12-08T16:55:10.173Z,0.32
2023-12-08T16:57:36.661Z,0.35
2023-12-08T17:00:04.898Z,0.34
2023-12-08T17:02:31.257Z,0.36
2023-12-08T17:04:57.971Z,0.31
2023-12-08T17:07:24.428Z,0.25
2023-12-08T17:09:50.789Z,0.19
2023-12-08T17:12:17.147Z,0.26
2023-12-08T17:14:43.524Z,0.19
2023-12-08T17:17:09.922Z,0.12
2023-12-08T17:19:36.307Z,0.11
2023-12-08T17:22:02.695Z,0.09
2023-12-08T17:24:29.039Z,0.04
2023-12-08T17:26:56.441Z,-0.01
2023-12-08T17:29:22.861Z,-0.01
2023-12-08T17:31:49.347Z,0.00
2023-12-08T17:34:21.598Z,-0.03
2023-12-08T17:36:49.267Z,-0.04
2023-12-08T17:39:17.643Z,-0.04
2023-12-08T17:41:44.294Z,0.00
2023-12-08T17:44:10.832Z,-0.03
2023-12-08T17:46:40.443Z,-0.14
2023-12-08T17:49:07.084Z,0.00
2023-12-08T17:51:33.620Z,-0.07
2023-12-08T17:54:00.006Z,-0.07
2023-12-08T17:56:26.322Z,-0.07
2023-12-08T17:58:53.566Z,-0.06
2023-12-08T18:01:19.997Z,-0.09
2023-12-08T18:03:46.382Z,-0.09
2023-12-08T18:06:18.963Z,-0.18
2023-12-08T18:08:45.362Z,-0.14
2023-12-08T18:11:21.680Z,-0.07
2023-12-08T18:13:47.989Z,-0.13
2023-12-08T18:16:21.003Z,-0.05
2023-12-08T18:18:47.400Z,0.00
2023-12-08T18:21:21.717Z,-0.05
2023-12-08T18:23:48.089Z,-0.05
2023-12-08T18:26:14.521Z,-0.01
2023-12-08T18:29:07.075Z,-0.08
2023-12-08T18:31:28.326Z,-0.08
2023-12-08T18:33:55.810Z,-0.05
2023-12-08T18:36:26.570Z,-0.11
2023-12-08T18:38:53.562Z,-0.15
2023-12-08T18:41:20.048Z,-0.10
2023-12-08T18:43:46.917Z,-0.09
2023-12-08T18:46:13.920Z,-0.15
2023-12-08T18:48:42.188Z,-0.14
2023-12-08T18:51:08.847Z,-0.10
2023-12-08T18:53:35.318Z,-0.15
2023-12-08T18:56:04.981Z,-0.16
2023-12-08T18:58:31.861Z,-0.14
2023-12-08T19:00:58.283Z,-0.15
2023-12-08T19:03:24.770Z,-0.16
2023-12-08T19:05:51.202Z,-0.18
2023-12-08T19:08:17.801Z,-0.15
2023-12-08T19:10:45.355Z,-0.09
2023-12-08T19:13:11.763Z,-0.12
2023-12-08T19:15:38.151Z,-0.12
2023-12-08T19:18:04.613Z,-0.13
2023-12-08T19:20:31.139Z,-0.12
2023-12-08T19:22:58.208Z,-0.13
2023-12-08T19:25:24.576Z,-0.17
2023-12-08T19:27:50.863Z,-0.13
2023-12-08T19:30:17.320Z,-0.11
2023-12-08T19:32:44.276Z,-0.16
2023-12-08T19:35:11.050Z,-0.15
2023-12-08T19:37:37.415Z,-0.17
2023-12-08T19:40:03.848Z,-0.13
2023-12-08T19:42:31.903Z,-0.09
2023-12-08T19:44:58.566Z,0.01
2023-12-08T19:47:25.153Z,-0.09
2023-12-08T19:49:51.896Z,-0.01
2023-12-08T19:52:19.514Z,0.07
2023-12-08T19:54:45.843Z,0.09
2023-12-08T19:57:13.197Z,0.05
2023-12-08T19:59:39.564Z,0.10
2023-12-08T20:02:05.883Z,0.11
2023-12-08T20:04:32.197Z,0.08
2023-12-08T20:06:58.576Z,0.10
2023-12-08T20:09:24.963Z,0.07
2023-12-08T20:11:51.389Z,0.05
2023-12-08T20:14:17.875Z,-0.02
2023-12-08T20:16:44.325Z,0.01
2023-12-08T20:19:11.226Z,0.03
2023-12-08T20:21:37.660Z,-0.02
2023-12-08T20:24:04.185Z,-0.01
2023-12-08T20:26:30.574Z,0.01
2023-12-08T20:28:56.936Z,-0.03
2023-12-08T20:31:23.619Z,-0.01
2023-12-08T20:33:50.238Z,0.04
2023-12-08T20:36:16.755Z,0.05
2023-12-08T20:38:43.542Z,-0.02
2023-12-08T20:41:09.853Z,0.06
2023-12-08T20:43:36.208Z,0.07
2023-12-08T20:46:03.672Z,0.14
2023-12-08T20:48:30.394Z,0.12
2023-12-08T20:50:57.659Z,0.08
2023-12-08T20:53:24.332Z,-0.01
2023-12-08T20:55:50.737Z,0.08
2023-12-08T20:58:17.067Z,0.06
2023-12-08T21:00:45.481Z,0.10
2023-12-08T21:03:12.277Z,0.07
2023-12-08T21:05:39.039Z,0.03
2023-12-08T21:08:05.570Z,-0.04
2023-12-08T21:10:32.329Z,-0.01
2023-12-08T21:12:58.949Z,0.02
2023-12-08T21:15:25.328Z,-0.04
2023-12-08T21:17:54.946Z,0.01
2023-12-08T21:20:21.348Z,0.06
2023-12-08T21:22:47.684Z,0.00
2023-12-08T21:25:14.405Z,0.05
2023-12-08T21:27:41.400Z,0.06
2023-12-08T21:30:09.198Z,0.05
2023-12-08T21:32:36.333Z,0.08
2023-12-08T21:35:02.878Z,0.06
2023-12-08T21:37:29.324Z,0.04
2023-12-08T21:39:56.112Z,0.10
2023-12-08T21:42:23.029Z,0.13
2023-12-08T21:44:49.626Z,0.11
2023-12-08T21:47:16.032Z,0.12
2023-12-08T21:49:42.501Z,0.04
2023-12-08T21:52:08.897Z,0.07
2023-12-08T21:54:35.426Z,0.04
2023-12-08T21:57:01.795Z,0.03
2023-12-08T21:59:28.769Z,-0.01
2023-12-08T22:01:55.217Z,0.06
2023-12-08T22:04:21.582Z,0.06
2023-12-08T22:06:47.962Z,0.06
2023-12-08T22:09:14.819Z,0.05
2023-12-08T22:11:41.167Z,0.14
2023-12-08T22:14:08.102Z,0.11
2023-12-08T22:16:34.444Z,0.06
2023-12-08T22:19:01.019Z,0.08
2023-12-08T22:21:27.570Z,0.07
2023-12-08T22:23:54.165Z,0.03
2023-12-08T22:26:20.586Z,0.02
2023-12-08T22:28:47.759Z,0.00
2023-12-08T22:31:14.730Z,-0.07
2023-12-08T22:33:41.208Z,-0.02
2023-12-08T22:36:08.592Z,-0.03
2023-12-08T22:38:34.932Z,-0.09
2023-12-08T22:41:01.258Z,-0.04
2023-12-08T22:43:27.561Z,-0.03
2023-12-08T22:45:53.946Z,-0.07
2023-12-08T22:48:20.418Z,-0.02
2023-12-08T22:50:50.360Z,0.03
2023-12-08T22:53:18.189Z,0.00
2023-12-08T22:55:44.737Z,0.04
2023-12-08T22:58:11.243Z,0.08
2023-12-08T23:00:37.735Z,0.09
2023-12-08T23:03:04.315Z,-0.02
2023-12-08T23:05:31.701Z,0.02
2023-12-08T23:07:58.151Z,0.04
2023-12-08T23:10:24.510Z,0.03
2023-12-08T23:12:50.865Z,0.00
2023-12-08T23:15:17.238Z,0.03
2023-12-08T23:17:43.702Z,0.07
2023-12-08T23:20:10.297Z,0.08
2023-12-08T23:22:36.669Z,0.03
2023-12-08T23:25:03.025Z,-0.01
2023-12-08T23:27:29.509Z,-0.07
2023-12-08T23:29:55.896Z,0.03
2023-12-08T23:32:22.415Z,0.04
2023-12-08T23:34:48.904Z,0.04
2023-12-08T23:37:15.462Z,0.08
2023-12-08T23:39:42.000Z,0.09
2023-12-08T23:42:08.402Z,0.10
2023-12-08T23:44:35.015Z,0.10
2023-12-08T23:47:01.406Z,0.05
2023-12-08T23:49:28.051Z,0.11
2023-12-08T23:51:54.517Z,0.09
2023-12-08T23:54:20.895Z,0.13
2023-12-08T23:56:47.256Z,0.13
2023-12-08T23:59:13.890Z,0.13
